createdAt,value
2018-06-11T00:00:45.183Z,49.27
2018-06-11T00:03:12.927Z,50.00
2018-06-11T00:06:05.877Z,50.10
2018-06-11T00:08:33.730Z,48.30
2018-06-11T00:11:01.618Z,50.17
2018-06-11T00:13:29.436Z,52.23
2018-06-11T00:15:57.353Z,52.07
2018-06-11T00:18:25.171Z,49.63
2018-06-11T00:20:52.980Z,52.20
2018-06-11T00:23:20.837Z,52.60
2018-06-11T00:25:48.709Z,58.20
2018-06-11T00:28:16.534Z,62.57
2018-06-11T00:30:44.386Z,61.23
2018-06-11T00:33:12.252Z,62.67
2018-06-11T00:35:40.124Z,60.67
2018-06-11T00:38:07.987Z,55.03
2018-06-11T00:40:35.844Z,55.90
2018-06-11T00:43:03.673Z,58.17
2018-06-11T00:45:31.564Z,61.77
2018-06-11T00:47:59.323Z,57.33
2018-06-11T00:50:27.145Z,61.33
2018-06-11T00:52:54.966Z,64.03
2018-06-11T00:55:22.981Z,61.45
2018-06-11T00:57:50.808Z,63.52
2018-06-11T01:00:18.701Z,64.07
2018-06-11T01:02:46.568Z,62.78
2018-06-11T01:05:14.407Z,60.10
2018-06-11T01:07:42.265Z,62.05
2018-06-11T01:10:10.187Z,60.00
2018-06-11T01:12:38.097Z,61.00
2018-06-11T01:15:05.984Z,61.58
2018-06-11T01:17:33.854Z,63.58
2018-06-11T01:20:01.751Z,63.38
2018-06-11T01:22:29.657Z,59.95
2018-06-11T01:24:57.505Z,61.08
2018-06-11T01:27:25.379Z,57.58
2018-06-11T01:29:53.253Z,57.03
2018-06-11T01:32:21.464Z,56.35
2018-06-11T01:34:49.303Z,55.88
2018-06-11T01:37:17.177Z,49.48
2018-06-11T01:39:44.992Z,49.60
2018-06-11T01:42:12.856Z,51.02
2018-06-11T01:44:40.709Z,49.23
2018-06-11T01:47:08.516Z,48.87
2018-06-11T01:49:36.376Z,50.05
2018-06-11T01:52:04.238Z,50.98
2018-06-11T01:54:32.198Z,50.60
2018-06-11T01:57:00.091Z,50.52
2018-06-11T01:59:27.971Z,50.90
2018-06-11T02:01:55.776Z,51.45
2018-06-11T02:04:23.680Z,54.23
2018-06-11T02:06:51.517Z,54.98
2018-06-11T02:09:19.341Z,52.98
2018-06-11T02:11:47.181Z,55.65
2018-06-11T02:14:14.953Z,54.60
2018-06-11T02:16:42.805Z,53.80
2018-06-11T02:19:10.642Z,52.62
2018-06-11T02:21:38.503Z,54.83
2018-06-11T02:24:06.324Z,54.25
2018-06-11T02:26:34.120Z,51.37
2018-06-11T02:32:34.664Z,50.90
2018-06-11T02:35:02.243Z,49.55
2018-06-11T02:37:29.795Z,45.45
2018-06-11T02:39:57.332Z,47.83
2018-06-11T02:42:24.888Z,46.40
2018-06-11T02:44:52.420Z,47.35
2018-06-11T02:47:19.958Z,48.98
2018-06-11T02:49:47.540Z,48.70
2018-06-11T02:52:15.080Z,48.15
2018-06-11T02:54:42.609Z,48.33
2018-06-11T02:57:10.142Z,49.50
2018-06-11T02:59:37.697Z,48.52
2018-06-11T03:02:05.247Z,49.85
2018-06-11T03:04:32.799Z,49.88
2018-06-11T03:07:00.340Z,45.43
2018-06-11T03:09:27.932Z,45.88
2018-06-11T03:11:55.455Z,47.30
2018-06-11T03:14:22.998Z,45.88
2018-06-11T03:16:50.540Z,47.08
2018-06-11T03:19:18.092Z,47.75
2018-06-11T03:21:45.632Z,46.10
2018-06-11T03:24:13.176Z,48.63
2018-06-11T03:26:40.720Z,47.67
2018-06-11T03:29:08.266Z,47.10
2018-06-11T03:31:35.815Z,43.45
2018-06-11T03:34:03.375Z,44.98
2018-06-11T03:36:30.907Z,46.15
2018-06-11T03:38:58.460Z,45.48
2018-06-11T03:41:25.991Z,47.48
2018-06-11T03:43:53.545Z,44.05
2018-06-11T03:46:21.077Z,46.37
2018-06-11T03:48:48.611Z,44.75
2018-06-11T03:51:16.147Z,44.55
2018-06-11T03:53:43.709Z,45.75
2018-06-11T03:56:11.244Z,45.92
2018-06-11T03:58:38.784Z,47.08
2018-06-11T04:01:06.356Z,49.77
2018-06-11T04:03:33.883Z,50.60
2018-06-11T04:06:01.427Z,49.65
2018-06-11T04:08:28.977Z,47.00
2018-06-11T04:10:56.605Z,45.73
2018-06-11T04:13:24.037Z,47.58
2018-06-11T04:15:51.570Z,47.40
2018-06-11T04:18:19.095Z,45.78
2018-06-11T04:20:46.632Z,46.20
2018-06-11T04:23:14.173Z,43.35
2018-06-11T04:25:41.696Z,44.83
2018-06-11T04:28:09.486Z,44.48
2018-06-11T04:30:37.024Z,43.85
2018-06-11T04:33:04.694Z,38.35
2018-06-11T04:35:32.220Z,39.05
2018-06-11T04:37:59.743Z,42.10
2018-06-11T04:40:27.255Z,40.98
2018-06-11T04:42:54.771Z,40.12
2018-06-11T04:45:22.320Z,39.90
2018-06-11T04:47:49.818Z,39.88
2018-06-11T04:50:17.352Z,41.37
2018-06-11T04:52:44.879Z,40.00
2018-06-11T04:55:12.405Z,39.30
2018-06-11T04:57:39.919Z,39.45
2018-06-11T05:00:07.480Z,39.98
2018-06-11T05:02:35.022Z,39.73
2018-06-11T05:05:02.569Z,36.80
2018-06-11T05:07:30.087Z,36.98
2018-06-11T05:09:57.640Z,37.25
2018-06-11T05:12:25.200Z,37.58
2018-06-11T05:14:52.740Z,37.90
2018-06-11T05:17:20.437Z,35.88
2018-06-11T05:19:47.968Z,36.85
2018-06-11T05:22:15.495Z,34.23
2018-06-11T05:24:43.028Z,37.63
2018-06-11T05:27:10.564Z,33.78
2018-06-11T05:29:38.098Z,33.10
2018-06-11T05:32:05.651Z,33.98
2018-06-11T05:34:33.240Z,34.35
2018-06-11T05:37:00.743Z,33.08
2018-06-11T05:39:28.288Z,32.63
2018-06-11T05:41:55.832Z,31.95
2018-06-11T05:44:23.365Z,33.30
2018-06-11T05:46:50.904Z,32.83
2018-06-11T05:49:18.439Z,33.42
2018-06-11T05:51:46.044Z,32.30
2018-06-11T05:54:13.582Z,32.38
2018-06-11T05:56:41.121Z,33.00
2018-06-11T05:59:08.671Z,32.45
2018-06-11T06:01:36.232Z,32.63
2018-06-11T06:04:03.795Z,32.98
2018-06-11T06:06:31.339Z,34.45
2018-06-11T06:08:58.879Z,33.05
2018-06-11T06:11:26.429Z,32.53
2018-06-11T06:13:53.967Z,32.83
2018-06-11T06:16:21.494Z,33.30
2018-06-11T06:18:49.048Z,33.98
2018-06-11T06:21:16.600Z,32.25
2018-06-11T06:23:44.155Z,32.38
2018-06-11T06:26:11.705Z,32.13
2018-06-11T06:28:39.255Z,32.00
2018-06-11T06:31:06.797Z,33.10
2018-06-11T06:33:34.345Z,32.05
2018-06-11T06:36:01.914Z,33.20
2018-06-11T06:38:29.468Z,32.13
2018-06-11T06:40:57.028Z,31.77
2018-06-11T06:43:24.576Z,31.73
2018-06-11T06:45:52.122Z,30.72
2018-06-11T06:48:19.673Z,31.15
2018-06-11T06:50:47.254Z,31.20
2018-06-11T06:53:14.805Z,30.08
2018-06-11T06:55:42.350Z,30.20
2018-06-11T06:58:09.895Z,30.08
2018-06-11T07:00:37.436Z,29.80
2018-06-11T07:03:04.983Z,28.40
2018-06-11T07:05:32.525Z,26.73
2018-06-11T07:08:00.153Z,26.27
2018-06-11T07:10:27.707Z,25.77
2018-06-11T07:12:55.243Z,25.50
2018-06-11T07:15:22.802Z,24.12
2018-06-11T07:17:50.355Z,22.73
2018-06-11T07:20:17.971Z,22.15
2018-06-11T07:22:45.444Z,23.05
2018-06-11T07:25:12.992Z,20.70
2018-06-11T07:27:40.552Z,19.37
2018-06-11T07:30:08.099Z,19.23
2018-06-11T07:32:35.684Z,18.92
2018-06-11T07:35:03.253Z,18.20
2018-06-11T07:37:30.771Z,18.05
2018-06-11T07:39:58.323Z,16.00
2018-06-11T07:42:25.861Z,15.53
2018-06-11T07:44:53.409Z,17.70
2018-06-11T07:47:21.114Z,18.23
2018-06-11T07:49:48.684Z,15.23
2018-06-11T07:52:16.234Z,15.08
2018-06-11T07:54:43.795Z,16.25
2018-06-11T07:57:11.353Z,16.73
2018-06-11T07:59:38.910Z,18.65
2018-06-11T08:02:06.467Z,18.70
2018-06-11T08:04:34.019Z,18.80
2018-06-11T08:07:01.573Z,19.17
2018-06-11T08:09:29.116Z,17.65
2018-06-11T08:11:56.681Z,17.60
2018-06-11T08:14:24.277Z,16.65
2018-06-11T08:16:51.852Z,18.55
2018-06-11T08:19:19.417Z,17.92
2018-06-11T08:21:46.972Z,20.45
2018-06-11T08:24:14.546Z,20.72
2018-06-11T08:26:42.112Z,19.27
2018-06-11T08:29:09.649Z,19.67
2018-06-11T08:31:37.216Z,17.60
2018-06-11T08:34:04.864Z,17.92
2018-06-11T08:36:32.428Z,18.40
2018-06-11T08:38:59.974Z,19.00
2018-06-11T08:41:27.528Z,18.75
2018-06-11T08:43:55.075Z,19.32
2018-06-11T08:46:22.625Z,18.27
2018-06-11T08:48:50.197Z,18.37
2018-06-11T08:51:17.764Z,21.15
2018-06-11T08:53:45.312Z,21.17
2018-06-11T08:56:12.864Z,19.50
2018-06-11T08:58:40.419Z,19.45
2018-06-11T09:01:07.976Z,19.87
2018-06-11T09:03:35.517Z,19.77
2018-06-11T09:06:03.079Z,20.23
2018-06-11T09:08:30.649Z,18.50
2018-06-11T09:10:58.212Z,20.10
2018-06-11T09:13:25.755Z,22.20
2018-06-11T09:15:53.329Z,21.20
2018-06-11T09:18:21.068Z,21.85
2018-06-11T09:20:48.429Z,22.32
2018-06-11T09:23:15.979Z,23.38
2018-06-11T09:25:43.540Z,21.23
2018-06-11T09:28:11.105Z,23.90
2018-06-11T09:30:38.653Z,23.87
2018-06-11T09:33:06.218Z,22.07
2018-06-11T09:35:33.792Z,23.00
2018-06-11T09:38:01.354Z,21.80
2018-06-11T09:40:28.911Z,24.60
2018-06-11T09:42:59.767Z,23.98
2018-06-11T09:45:27.344Z,26.77
2018-06-11T09:47:54.908Z,26.73
2018-06-11T09:50:22.447Z,27.87
2018-06-11T09:52:49.996Z,28.15
2018-06-11T09:55:17.557Z,29.42
2018-06-11T09:57:45.129Z,26.93
2018-06-11T10:00:18.595Z,25.45
2018-06-11T10:02:46.140Z,24.30
2018-06-11T10:05:13.728Z,23.80
2018-06-11T10:07:41.317Z,24.05
2018-06-11T10:10:08.851Z,25.85
2018-06-11T10:12:36.440Z,21.45
2018-06-11T10:15:04.347Z,24.05
2018-06-11T10:17:31.887Z,22.42
2018-06-11T10:19:59.397Z,21.62
2018-06-11T10:22:26.928Z,24.92
2018-06-11T10:24:54.509Z,26.20
2018-06-11T10:27:21.979Z,24.67
2018-06-11T10:29:49.513Z,25.35
2018-06-11T10:32:17.057Z,24.37
2018-06-11T10:34:44.560Z,26.20
2018-06-11T10:37:12.110Z,24.60
2018-06-11T10:39:39.634Z,23.77
2018-06-11T10:42:07.229Z,24.30
2018-06-11T10:44:34.750Z,23.98
2018-06-11T10:47:02.561Z,22.02
2018-06-11T10:49:30.089Z,22.32
2018-06-11T10:51:57.601Z,22.87
2018-06-11T10:54:25.143Z,22.73
2018-06-11T10:56:52.667Z,24.18
2018-06-11T10:59:20.218Z,24.05
2018-06-11T11:01:47.765Z,23.38
2018-06-11T11:04:15.308Z,26.30
2018-06-11T11:06:42.845Z,26.50
2018-06-11T11:09:10.372Z,26.35
2018-06-11T11:11:38.168Z,25.12
2018-06-11T11:14:05.721Z,25.77
2018-06-11T11:16:33.260Z,24.15
2018-06-11T11:19:00.829Z,23.80
2018-06-11T11:21:28.397Z,23.20
2018-06-11T11:23:56.005Z,25.17
2018-06-11T11:26:23.503Z,25.08
2018-06-11T11:28:51.055Z,23.35
2018-06-11T11:31:18.673Z,22.42
2018-06-11T11:33:46.255Z,23.18
2018-06-11T11:36:13.771Z,24.90
2018-06-11T11:38:41.329Z,22.07
2018-06-11T11:41:08.889Z,22.15
2018-06-11T11:43:36.423Z,24.10
2018-06-11T11:46:04.052Z,21.40
2018-06-11T11:48:31.596Z,20.25
2018-06-11T11:50:59.133Z,21.68
2018-06-11T11:53:26.684Z,23.42
2018-06-11T11:55:54.240Z,24.67
2018-06-11T11:58:21.797Z,23.47
2018-06-11T12:00:49.353Z,22.10
2018-06-11T12:03:16.892Z,23.42
2018-06-11T12:05:44.442Z,23.15
2018-06-11T12:08:11.996Z,24.07
2018-06-11T12:10:39.563Z,21.42
2018-06-11T12:13:07.448Z,21.12
2018-06-11T12:15:35.008Z,23.75
2018-06-11T12:18:02.560Z,24.40
2018-06-11T12:20:30.136Z,22.98
2018-06-11T12:22:57.696Z,23.65
2018-06-11T12:25:25.246Z,24.02
2018-06-11T12:27:52.777Z,22.15
2018-06-11T12:30:20.365Z,23.42
2018-06-11T12:32:47.895Z,23.65
2018-06-11T12:35:15.431Z,23.75
2018-06-11T12:37:42.967Z,24.55
2018-06-11T12:40:10.591Z,25.32
2018-06-11T12:42:38.111Z,23.95
2018-06-11T12:45:05.872Z,23.83
2018-06-11T12:47:33.460Z,24.60
2018-06-11T12:50:00.973Z,24.80
2018-06-11T12:52:28.492Z,24.02
2018-06-11T12:54:56.046Z,25.45
2018-06-11T12:57:23.589Z,25.32
2018-06-11T12:59:51.117Z,24.35
2018-06-11T13:02:18.645Z,24.23
2018-06-11T13:04:46.217Z,21.73
2018-06-11T13:07:13.753Z,21.27
2018-06-11T13:09:41.356Z,19.37
2018-06-11T13:12:08.891Z,24.12
2018-06-11T13:14:36.426Z,21.12
2018-06-11T13:17:04.124Z,22.95
2018-06-11T13:19:31.668Z,21.33
2018-06-11T13:21:59.224Z,22.98
2018-06-11T13:24:26.743Z,22.60
2018-06-11T13:26:54.332Z,22.00
2018-06-11T13:29:21.826Z,23.22
2018-06-11T13:31:49.364Z,23.55
2018-06-11T13:34:16.898Z,22.30
2018-06-11T13:36:44.423Z,23.18
2018-06-11T13:39:11.935Z,21.60
2018-06-11T13:41:39.475Z,22.65
2018-06-11T13:44:07.000Z,21.33
2018-06-11T13:46:34.547Z,19.20
2018-06-11T13:49:02.100Z,21.00
2018-06-11T13:51:29.672Z,20.92
2018-06-11T13:53:57.260Z,19.98
2018-06-11T13:56:24.816Z,21.55
2018-06-11T13:58:52.358Z,19.55
2018-06-11T14:01:19.945Z,21.60
2018-06-11T14:06:47.156Z,21.87
2018-06-11T14:09:14.700Z,20.30
2018-06-11T14:11:42.277Z,20.48
2018-06-11T14:14:09.800Z,22.05
2018-06-11T14:16:37.353Z,20.37
2018-06-11T14:19:05.131Z,20.12
2018-06-11T14:21:32.667Z,20.55
2018-06-11T14:24:00.191Z,21.10
2018-06-11T14:26:27.792Z,20.70
2018-06-11T14:28:55.313Z,20.80
2018-06-11T14:31:22.852Z,18.98
2018-06-11T14:34:11.694Z,20.12
2018-06-11T14:36:39.256Z,19.27
2018-06-11T14:39:08.184Z,21.23
2018-06-11T14:41:35.744Z,19.87
2018-06-11T14:44:03.283Z,19.32
2018-06-11T14:46:30.799Z,18.82
2018-06-11T14:48:58.343Z,17.70
2018-06-11T14:51:25.859Z,17.23
2018-06-11T14:53:53.400Z,17.70
2018-06-11T14:56:20.940Z,18.23
2018-06-11T14:58:48.481Z,17.40
2018-06-11T15:01:16.008Z,18.35
2018-06-11T15:03:43.734Z,17.37
2018-06-11T15:06:11.249Z,18.87
2018-06-11T15:08:38.778Z,16.10
2018-06-11T15:11:06.384Z,16.32
2018-06-11T15:13:33.928Z,14.78
2018-06-11T15:16:01.489Z,14.55
2018-06-11T15:18:29.035Z,14.28
2018-06-11T15:20:56.583Z,15.20
2018-06-11T15:23:24.123Z,14.53
2018-06-11T15:25:51.663Z,14.78
2018-06-11T15:28:19.196Z,15.48
2018-06-11T15:30:46.734Z,11.48
2018-06-11T15:33:14.258Z,12.60
2018-06-11T15:35:41.821Z,12.50
2018-06-11T15:38:09.361Z,12.37
2018-06-11T15:40:36.915Z,11.12
2018-06-11T15:43:04.800Z,11.40
2018-06-11T15:45:36.156Z,12.15
2018-06-11T15:48:03.828Z,12.93
2018-06-11T15:50:31.392Z,11.40
2018-06-11T15:52:58.995Z,12.18
2018-06-11T15:55:26.552Z,13.35
2018-06-11T15:57:56.177Z,12.90
2018-06-11T16:00:33.673Z,12.90
2018-06-11T16:03:13.957Z,11.33
2018-06-11T16:05:41.524Z,13.22
2018-06-11T16:08:09.064Z,12.80
2018-06-11T16:10:36.621Z,12.78
2018-06-11T16:13:04.180Z,12.40
2018-06-11T16:15:31.709Z,12.90
2018-06-11T16:17:59.247Z,13.65
2018-06-11T16:20:26.780Z,12.60
2018-06-11T16:22:54.303Z,12.95
2018-06-11T16:25:21.823Z,12.80
2018-06-11T16:27:49.381Z,12.10
2018-06-11T16:30:16.909Z,10.32
2018-06-11T16:32:44.435Z,11.80
2018-06-11T16:35:11.960Z,11.60
2018-06-11T16:37:39.511Z,11.93
2018-06-11T16:40:07.052Z,12.55
2018-06-11T16:42:34.579Z,12.13
2018-06-11T16:45:02.104Z,12.10
2018-06-11T16:47:29.700Z,11.83
2018-06-11T16:49:57.224Z,12.47
2018-06-11T16:52:24.771Z,12.10
2018-06-11T16:55:05.417Z,10.93
2018-06-11T16:57:32.953Z,11.05
2018-06-11T17:00:03.773Z,11.80
2018-06-11T17:02:31.311Z,10.98
2018-06-11T17:04:58.865Z,11.57
2018-06-11T17:07:41.447Z,10.48
2018-06-11T17:10:09.010Z,10.15
2018-06-11T17:15:37.464Z,10.88
2018-06-11T17:18:05.039Z,9.70
2018-06-11T17:20:32.589Z,10.90
2018-06-11T17:23:00.164Z,9.93
2018-06-11T17:25:27.717Z,10.58
2018-06-11T17:27:55.259Z,9.98
2018-06-11T17:30:22.819Z,10.68
2018-06-11T17:32:50.373Z,9.28
2018-06-11T17:35:17.919Z,10.98
2018-06-11T17:37:45.473Z,10.03
2018-06-11T17:40:13.035Z,10.78
2018-06-11T17:42:40.581Z,11.80
2018-06-11T17:45:08.145Z,10.55
2018-06-11T17:47:41.953Z,10.48
2018-06-11T17:50:09.512Z,10.23
2018-06-11T17:52:37.043Z,10.43
2018-06-11T17:55:04.637Z,10.78
2018-06-11T17:57:32.237Z,10.35
2018-06-11T17:59:59.759Z,18.77
2018-06-11T18:02:27.331Z,9.95
2018-06-11T18:04:54.861Z,10.10
2018-06-11T18:07:22.404Z,10.95
2018-06-11T18:09:49.973Z,9.60
2018-06-11T18:12:17.532Z,11.80
2018-06-11T18:14:45.075Z,10.15
2018-06-11T18:17:12.612Z,10.38
2018-06-11T18:19:40.165Z,10.05
2018-06-11T18:22:07.761Z,10.78
2018-06-11T18:24:35.311Z,9.33
2018-06-11T18:27:02.874Z,10.25
2018-06-11T18:29:30.422Z,9.65
2018-06-11T18:31:57.979Z,10.20
2018-06-11T18:34:25.530Z,9.53
2018-06-11T18:36:53.087Z,10.60
2018-06-11T18:39:20.642Z,9.68
2018-06-11T18:41:48.188Z,10.00
2018-06-11T18:44:15.753Z,10.58
2018-06-11T18:46:43.306Z,9.70
2018-06-11T18:49:10.852Z,10.15
2018-06-11T18:51:38.455Z,10.50
2018-06-11T18:54:06.024Z,10.43
2018-06-11T18:56:33.581Z,10.00
2018-06-11T18:59:01.154Z,9.90
2018-06-11T19:01:28.704Z,10.70
2018-06-11T19:03:56.263Z,10.30
2018-06-11T19:06:23.812Z,10.45
2018-06-11T19:08:51.352Z,10.53
2018-06-11T19:11:18.876Z,10.13
2018-06-11T19:13:46.409Z,10.72
2018-06-11T19:16:13.949Z,10.88
2018-06-11T19:18:41.527Z,12.03
2018-06-11T19:21:09.023Z,10.63
2018-06-11T19:23:36.543Z,11.00
2018-06-11T19:26:04.116Z,12.10
2018-06-11T19:28:31.665Z,11.05
2018-06-11T19:30:59.208Z,10.28
2018-06-11T19:33:26.760Z,11.15
2018-06-11T19:35:54.300Z,11.20
2018-06-11T19:38:21.850Z,11.18
2018-06-11T19:40:49.453Z,11.20
2018-06-11T19:43:16.923Z,11.68
2018-06-11T19:45:44.453Z,12.28
2018-06-11T19:48:12.002Z,12.07
2018-06-11T19:50:39.556Z,11.83
2018-06-11T19:53:07.100Z,11.80
2018-06-11T19:55:34.636Z,12.53
2018-06-11T19:58:02.174Z,13.00
2018-06-11T20:00:29.722Z,12.60
2018-06-11T20:02:57.248Z,12.18
2018-06-11T20:05:24.793Z,12.18
2018-06-11T20:07:52.317Z,12.63
2018-06-11T20:10:19.860Z,13.53
2018-06-11T20:12:47.379Z,12.60
2018-06-11T20:15:14.937Z,12.95
2018-06-11T20:17:42.460Z,13.32
2018-06-11T20:20:09.984Z,13.20
2018-06-11T20:22:37.529Z,13.70
2018-06-11T20:25:05.240Z,13.32
2018-06-11T20:27:32.766Z,13.98
2018-06-11T20:30:00.309Z,15.00
2018-06-11T20:32:27.878Z,12.93
2018-06-11T20:34:55.379Z,14.10
2018-06-11T20:37:22.943Z,13.32
2018-06-11T20:40:03.768Z,14.20
2018-06-11T20:42:31.308Z,14.03
2018-06-11T20:44:58.832Z,14.53
2018-06-11T20:47:26.363Z,14.63
2018-06-11T20:49:53.893Z,13.80
2018-06-11T20:52:21.444Z,14.75
2018-06-11T20:54:48.972Z,15.45
2018-06-11T20:57:16.500Z,15.00
2018-06-11T20:59:44.028Z,15.13
2018-06-11T21:02:11.582Z,14.43
2018-06-11T21:04:39.107Z,14.30
2018-06-11T21:07:06.675Z,14.47
2018-06-11T21:09:34.204Z,14.07
2018-06-11T21:12:01.739Z,14.45
2018-06-11T21:14:29.307Z,14.70
2018-06-11T21:16:56.879Z,35.85
2018-06-11T21:19:24.400Z,17.75
2018-06-11T21:21:51.939Z,15.05
2018-06-11T21:24:19.452Z,15.23
2018-06-11T21:26:47.000Z,15.50
2018-06-11T21:29:14.528Z,13.95
2018-06-11T21:31:42.048Z,15.38
2018-06-11T21:34:09.594Z,14.55
2018-06-11T21:36:50.107Z,15.20
2018-06-11T21:39:17.631Z,15.18
2018-06-11T21:41:45.151Z,15.20
2018-06-11T21:44:12.696Z,15.70
2018-06-11T21:46:40.226Z,15.72
2018-06-11T21:49:07.769Z,15.10
2018-06-11T21:51:35.288Z,15.68
2018-06-11T21:54:22.065Z,16.07
2018-06-11T21:56:49.596Z,15.25
2018-06-11T21:59:17.120Z,15.60
2018-06-11T22:01:44.712Z,15.45
2018-06-11T22:04:12.252Z,16.00
2018-06-11T22:06:39.788Z,14.80
2018-06-11T22:09:08.583Z,14.43
2018-06-11T22:11:36.125Z,14.68
2018-06-11T22:14:03.705Z,14.65
2018-06-11T22:16:31.240Z,14.50
2018-06-11T22:18:58.782Z,16.62
2018-06-11T22:21:26.351Z,14.75
2018-06-11T22:23:53.868Z,17.02
2018-06-11T22:26:21.391Z,17.15
2018-06-11T22:28:48.911Z,16.35
2018-06-11T22:31:16.436Z,16.60
2018-06-11T22:33:43.967Z,17.07
2018-06-11T22:36:11.500Z,16.85
2018-06-11T22:38:39.036Z,17.17
2018-06-11T22:41:06.573Z,18.23
2018-06-11T22:43:34.112Z,17.70
2018-06-11T22:46:01.655Z,17.48
2018-06-11T22:48:29.176Z,20.62
2018-06-11T22:50:56.698Z,19.70
2018-06-11T22:53:24.232Z,21.68
2018-06-11T22:55:51.748Z,22.32
2018-06-11T22:58:19.268Z,19.32
2018-06-11T23:00:46.816Z,20.08
2018-06-11T23:03:14.337Z,19.73
2018-06-11T23:05:41.860Z,20.45
2018-06-11T23:08:09.393Z,18.67
2018-06-11T23:10:36.927Z,16.45
2018-06-11T23:13:04.464Z,18.00
2018-06-11T23:15:32.024Z,16.27
2018-06-11T23:17:59.561Z,16.55
2018-06-11T23:20:27.095Z,14.53
2018-06-11T23:22:54.618Z,16.00
2018-06-11T23:25:22.928Z,15.53
2018-06-11T23:27:50.435Z,14.25
2018-06-11T23:30:17.983Z,13.90
2018-06-11T23:32:45.491Z,13.55
2018-06-11T23:35:13.036Z,13.75
2018-06-11T23:37:40.597Z,13.08
2018-06-11T23:40:08.107Z,10.63
2018-06-11T23:42:35.695Z,12.63
2018-06-11T23:45:03.235Z,10.78
2018-06-11T23:47:30.760Z,11.50
2018-06-11T23:49:58.272Z,10.18
2018-06-11T23:52:25.801Z,10.78
2018-06-11T23:54:53.340Z,11.90
2018-06-11T23:57:20.874Z,11.83
2018-06-11T23:59:48.429Z,11.33
